Benone, United Kingdom
Current Conditions -  °F | °C
As of 5:20 PM on Thursday 23 Oct 2014 (Local Time) from EGAE Reporting Station
Rain Showers Rain Showers  
Wind Chill: 13°   Ceiling: Unl
Heat Index: 13°   Visibility: 6mi
Dew Point: 11°   Wind: 21mph
Humidity: 88%   Direction: 240°WSW
Pressure: 29.68"   Gusts: NA
Location:  55.17°N, 6.88°W
Report Text: EGAE 231620Z 24018KT 9999 VCSH FEW006 SCT020 13/11 Q1005 RESHRA
Loading
Personal Weather Stations






























Interactive Weather Map
Tropical Storm Tracking
New forecast layout! Learn more

10-Day Weather Forecast

Advertisements
Track Severe Weather on mobile